Terminal Aerodrome Forecast
Issued by NWS Pittsburgh, PA

Current Version | Previous Version | Graphics & Text | Print | Product List | Glossary On
Versions: 1 2 3 4 5 6 7 8 9 10 11 12 13 14 15 16 17 18 19 20 21 22 23 24 25 26 27 28 29 30 31 32
000
FTUS41 KPBZ 221130 CCA
TAFPIT
TAF COR
KPIT 221130Z 2212/2318 34007KT P6SM SCT010 BKN100
      TEMPO 2212/2213 4SM BR BKN004
     FM221600 32006KT P6SM -SHRA BKN035
     FM222200 35006KT P6SM BKN050
     FM230600 34004KT P6SM SCT100=

USA.gov is the U.S. government's official web portal to all federal, state and local government web resources and services.